Terminal Aerodrome Forecast
Issued by NWS

Home | Current Version | Previous Version | Text Only | Print | Product List | Glossary On
Versions: 1 2 3 4 5 6 7 8 9 10 11 12 13
450
FTUS45 KPIH 232324
TAFSUN
TAF
KSUN 232324Z 2400/2424 21010KT P6SM FEW150
     FM240300 31008KT P6SM SKC
     FM241800 14007KT P6SM VCSH BKN050 OVC100
     FM242100 16008KT P6SM -SHRA SCT020 OVC035
      AMD LTD TO CLD VIS AND WIND 2405/2413=

USA.gov is the U.S. government's official web portal to all federal, state and local government web resources and services.